createdAt,value
2023-03-26T00:00:54.349Z,13.55
2023-03-26T00:03:35.970Z,13.51
2023-03-26T00:06:29.754Z,13.54
2023-03-26T00:08:57.726Z,13.52
2023-03-26T00:11:27.439Z,13.49
2023-03-26T00:13:57.013Z,13.45
2023-03-26T00:16:25.451Z,13.46
2023-03-26T00:18:53.513Z,13.46
2023-03-26T00:21:21.917Z,13.45
2023-03-26T00:23:49.236Z,13.48
2023-03-26T00:26:17.464Z,13.42
2023-03-26T00:28:44.697Z,13.40
2023-03-26T00:31:13.134Z,13.38
2023-03-26T00:33:40.916Z,13.32
2023-03-26T00:36:10.894Z,13.33
2023-03-26T00:38:39.266Z,13.36
2023-03-26T00:41:08.054Z,13.30
2023-03-26T00:43:35.867Z,13.29
2023-03-26T00:46:03.127Z,13.27
2023-03-26T00:48:42.268Z,13.27
2023-03-26T00:51:11.733Z,13.23
2023-03-26T00:53:39.060Z,13.24
2023-03-26T00:56:06.753Z,13.22
2023-03-26T00:58:34.081Z,13.19
2023-03-26T01:01:03.423Z,13.19
2023-03-26T01:03:35.203Z,13.18
2023-03-26T01:06:04.840Z,13.13
2023-03-26T01:08:38.240Z,13.12
2023-03-26T01:11:16.121Z,13.16
2023-03-26T01:13:48.943Z,13.16
2023-03-26T01:16:28.660Z,13.09
2023-03-26T01:18:58.793Z,13.08
2023-03-26T01:21:29.949Z,13.06
2023-03-26T01:24:05.191Z,13.04
2023-03-26T01:26:41.122Z,13.05
2023-03-26T01:29:11.820Z,13.03
2023-03-26T01:32:13.811Z,13.02
2023-03-26T01:34:53.098Z,12.97
2023-03-26T01:37:32.621Z,12.96
2023-03-26T01:40:07.035Z,12.97
2023-03-26T01:42:33.761Z,12.84
2023-03-26T01:45:06.925Z,12.91
2023-03-26T01:47:33.745Z,12.85
2023-03-26T01:50:00.972Z,12.87
2023-03-26T01:52:27.811Z,12.88
2023-03-26T01:54:54.941Z,12.89
2023-03-26T01:57:42.932Z,12.85
2023-03-26T02:00:22.727Z,12.84
2023-03-26T02:02:55.077Z,12.81
2023-03-26T02:05:33.265Z,12.82
2023-03-26T02:08:02.786Z,12.76
2023-03-26T02:10:31.251Z,12.78
2023-03-26T02:12:58.031Z,12.78
2023-03-26T02:15:25.273Z,12.73
2023-03-26T02:17:53.078Z,12.74
2023-03-26T02:20:21.184Z,12.74
2023-03-26T02:22:48.023Z,12.74
2023-03-26T02:25:16.830Z,12.67
2023-03-26T02:27:44.134Z,12.71
2023-03-26T02:30:13.794Z,12.73
2023-03-26T02:32:40.603Z,12.71
2023-03-26T02:35:08.041Z,12.72
2023-03-26T02:37:34.893Z,12.70
2023-03-26T02:40:02.119Z,12.72
2023-03-26T02:42:29.094Z,12.68
2023-03-26T02:44:56.235Z,12.69
2023-03-26T02:47:22.998Z,12.68
2023-03-26T02:49:50.116Z,12.68
2023-03-26T02:52:18.679Z,12.69
2023-03-26T02:54:45.857Z,12.67
2023-03-26T02:57:12.669Z,12.67
2023-03-26T02:59:39.893Z,12.67
2023-03-26T03:02:06.715Z,12.66
2023-03-26T03:04:33.751Z,12.69
2023-03-26T03:07:00.956Z,12.66
2023-03-26T03:09:27.989Z,12.66
2023-03-26T03:11:54.731Z,12.66
2023-03-26T03:14:21.799Z,12.65
2023-03-26T03:16:48.621Z,12.65
2023-03-26T03:19:15.785Z,12.62
2023-03-26T03:21:42.600Z,12.59
2023-03-26T03:24:09.880Z,12.60
2023-03-26T03:26:37.669Z,12.58
2023-03-26T03:29:04.744Z,12.58
2023-03-26T03:31:31.649Z,12.57
2023-03-26T03:33:58.746Z,12.56
2023-03-26T03:36:28.011Z,12.57
2023-03-26T03:38:55.401Z,12.54
2023-03-26T03:41:22.140Z,12.55
2023-03-26T03:43:49.223Z,12.54
2023-03-26T03:46:16.005Z,12.53
2023-03-26T03:48:48.223Z,12.53
2023-03-26T03:51:15.922Z,12.52
2023-03-26T03:53:42.976Z,12.54
2023-03-26T03:56:10.546Z,12.49
2023-03-26T03:58:37.709Z,12.50
2023-03-26T04:01:04.689Z,12.46
2023-03-26T04:03:33.370Z,12.48
2023-03-26T04:06:01.323Z,12.45
2023-03-26T04:08:28.399Z,12.47
2023-03-26T04:10:55.237Z,12.45
2023-03-26T04:13:22.308Z,12.43
2023-03-26T04:15:49.131Z,12.39
2023-03-26T04:18:16.160Z,12.38
2023-03-26T04:20:46.936Z,12.37
2023-03-26T04:23:14.310Z,12.37
2023-03-26T04:25:48.484Z,12.37
2023-03-26T04:28:36.404Z,12.34
2023-03-26T04:31:03.929Z,12.33
2023-03-26T04:33:32.447Z,12.33
2023-03-26T04:36:02.628Z,12.31
2023-03-26T04:38:33.447Z,12.27
2023-03-26T04:41:03.298Z,12.27
2023-03-26T04:43:35.490Z,12.29
2023-03-26T04:46:03.378Z,12.32
2023-03-26T04:48:30.432Z,12.33
2023-03-26T04:50:57.396Z,12.25
2023-03-26T04:53:24.486Z,12.28
2023-03-26T04:55:56.230Z,12.28
2023-03-26T04:58:30.100Z,12.25
2023-03-26T05:00:57.407Z,12.28
2023-03-26T05:03:25.712Z,12.25
2023-03-26T05:05:52.620Z,12.27
2023-03-26T05:08:19.902Z,12.26
2023-03-26T05:10:46.717Z,12.22
2023-03-26T05:13:13.886Z,12.24
2023-03-26T05:15:40.767Z,12.24
2023-03-26T05:18:08.939Z,12.23
2023-03-26T05:20:36.057Z,12.16
2023-03-26T05:23:03.114Z,12.20
2023-03-26T05:25:30.039Z,12.18
2023-03-26T05:27:57.152Z,12.16
2023-03-26T05:30:24.019Z,12.12
2023-03-26T05:32:52.007Z,12.16
2023-03-26T05:35:18.993Z,12.16
2023-03-26T05:37:46.593Z,12.18
2023-03-26T05:40:14.830Z,12.19
2023-03-26T05:42:41.942Z,12.14
2023-03-26T05:45:09.569Z,12.13
2023-03-26T05:47:36.677Z,12.18
2023-03-26T05:50:06.175Z,12.14
2023-03-26T05:52:33.338Z,12.11
2023-03-26T05:55:00.263Z,12.16
2023-03-26T05:57:30.035Z,12.15
2023-03-26T05:59:56.820Z,12.15
2023-03-26T06:02:24.058Z,12.17
2023-03-26T06:04:51.126Z,12.09
2023-03-26T06:07:18.542Z,12.11
2023-03-26T06:09:45.378Z,12.06
2023-03-26T06:12:12.960Z,12.14
2023-03-26T06:14:39.773Z,12.10
2023-03-26T06:17:06.818Z,12.10
2023-03-26T06:19:33.611Z,12.07
2023-03-26T06:22:00.682Z,12.10
2023-03-26T06:24:27.505Z,12.08
2023-03-26T06:26:54.571Z,12.12
2023-03-26T06:29:21.312Z,12.14
2023-03-26T06:31:48.637Z,12.17
2023-03-26T06:34:15.503Z,12.22
2023-03-26T06:36:42.556Z,12.22
2023-03-26T06:39:09.385Z,12.23
2023-03-26T06:41:36.495Z,12.25
2023-03-26T06:44:03.263Z,12.30
2023-03-26T06:46:30.428Z,12.34
2023-03-26T06:48:57.199Z,12.38
2023-03-26T06:51:24.319Z,12.41
2023-03-26T06:53:51.122Z,12.41
2023-03-26T06:56:18.168Z,12.43
2023-03-26T06:58:44.932Z,12.42
2023-03-26T07:01:12.002Z,12.51
2023-03-26T07:03:38.818Z,12.54
2023-03-26T07:06:06.166Z,12.55
2023-03-26T07:08:33.268Z,12.58
2023-03-26T07:11:00.545Z,12.59
2023-03-26T07:13:27.299Z,12.60
2023-03-26T07:15:54.361Z,12.62
2023-03-26T07:18:21.118Z,12.65
2023-03-26T07:20:48.608Z,12.67
2023-03-26T07:23:20.093Z,12.70
2023-03-26T07:25:48.374Z,12.77
2023-03-26T07:28:36.920Z,12.75
2023-03-26T07:31:08.493Z,12.78
2023-03-26T07:33:39.811Z,12.79
2023-03-26T07:36:26.815Z,12.82
2023-03-26T07:39:19.313Z,12.85
2023-03-26T07:41:49.412Z,12.86
2023-03-26T07:44:43.908Z,12.87
2023-03-26T07:47:31.576Z,12.93
2023-03-26T07:49:58.732Z,12.95
2023-03-26T07:52:26.652Z,12.98
2023-03-26T07:54:53.833Z,13.03
2023-03-26T07:57:39.806Z,13.01
2023-03-26T08:00:10.249Z,13.05
2023-03-26T08:02:43.183Z,13.09
2023-03-26T08:05:18.945Z,13.11
2023-03-26T08:07:50.809Z,13.18
2023-03-26T08:10:27.445Z,13.22
2023-03-26T08:13:07.844Z,13.26
2023-03-26T08:16:10.052Z,13.38
2023-03-26T08:18:51.986Z,13.44
2023-03-26T08:21:21.874Z,13.45
2023-03-26T08:23:55.133Z,13.50
2023-03-26T08:26:44.140Z,13.56
2023-03-26T08:29:35.017Z,13.63
2023-03-26T08:32:01.871Z,13.71
2023-03-26T08:34:28.990Z,13.77
2023-03-26T08:36:55.771Z,13.85
2023-03-26T08:39:22.871Z,13.93
2023-03-26T08:41:49.698Z,13.97
2023-03-26T08:44:19.435Z,14.00
2023-03-26T08:46:46.499Z,14.06
2023-03-26T08:49:57.308Z,14.09
2023-03-26T08:52:37.588Z,14.16
2023-03-26T08:55:04.619Z,14.21
2023-03-26T08:57:39.625Z,14.24
2023-03-26T09:00:13.682Z,14.21
2023-03-26T09:02:57.310Z,14.23
2023-03-26T09:05:46.643Z,14.27
2023-03-26T09:08:25.802Z,14.29
2023-03-26T09:11:15.417Z,14.28
2023-03-26T09:14:15.586Z,14.32
2023-03-26T09:16:57.867Z,14.35
2023-03-26T09:19:53.655Z,14.33
2023-03-26T09:22:47.995Z,14.33
2023-03-26T09:25:22.291Z,14.33
2023-03-26T09:28:20.741Z,14.33
2023-03-26T09:31:06.454Z,14.35
2023-03-26T09:33:42.743Z,14.39
2023-03-26T09:36:27.141Z,14.39
2023-03-26T09:39:04.284Z,14.43
2023-03-26T09:41:57.230Z,14.43
2023-03-26T09:44:27.125Z,14.44
2023-03-26T09:47:19.887Z,14.44
2023-03-26T09:50:24.517Z,14.46
2023-03-26T09:53:00.509Z,14.47
2023-03-26T09:55:43.331Z,14.44
2023-03-26T09:58:42.266Z,14.40
2023-03-26T10:01:11.172Z,14.44
2023-03-26T10:04:05.301Z,14.41
2023-03-26T10:06:54.280Z,14.42
2023-03-26T10:09:36.129Z,14.39
2023-03-26T10:12:09.386Z,14.42
2023-03-26T10:14:42.544Z,14.43
2023-03-26T10:17:37.330Z,14.46
2023-03-26T10:20:33.114Z,14.47
2023-03-26T10:23:06.621Z,14.48
2023-03-26T10:25:43.346Z,14.54
2023-03-26T10:28:39.759Z,14.56
2023-03-26T10:31:06.686Z,14.53
2023-03-26T10:34:28.380Z,14.61
2023-03-26T10:37:20.467Z,14.70
2023-03-26T10:39:50.568Z,14.71
2023-03-26T10:43:01.037Z,14.73
2023-03-26T10:45:46.723Z,14.73
2023-03-26T10:48:16.681Z,14.76
2023-03-26T10:51:12.938Z,14.82
2023-03-26T10:53:57.334Z,14.93
2023-03-26T10:56:28.314Z,14.95
2023-03-26T10:58:56.836Z,14.96
2023-03-26T11:01:40.371Z,14.95
2023-03-26T11:04:53.861Z,15.05
2023-03-26T11:07:47.316Z,15.13
2023-03-26T11:10:16.658Z,15.19
2023-03-26T11:12:49.151Z,15.19
2023-03-26T11:15:28.408Z,15.25
2023-03-26T11:18:04.707Z,15.33
2023-03-26T11:20:56.046Z,15.31
2023-03-26T11:24:09.041Z,15.37
2023-03-26T11:26:55.794Z,15.45
2023-03-26T11:29:33.465Z,15.56
2023-03-26T11:32:13.294Z,15.62
2023-03-26T11:34:49.651Z,15.63
2023-03-26T11:37:53.868Z,15.63
2023-03-26T11:40:24.410Z,15.65
2023-03-26T11:42:52.548Z,15.64
2023-03-26T11:45:21.047Z,15.69
2023-03-26T11:47:50.688Z,15.71
2023-03-26T11:50:27.120Z,15.72
2023-03-26T11:53:03.451Z,15.76
2023-03-26T11:55:30.531Z,15.82
2023-03-26T11:57:58.208Z,15.79
2023-03-26T12:00:27.516Z,15.80
2023-03-26T12:02:58.618Z,15.79
2023-03-26T12:05:29.481Z,15.87
2023-03-26T12:07:57.449Z,15.89
2023-03-26T12:10:27.809Z,15.97
2023-03-26T12:12:56.397Z,15.92
2023-03-26T12:15:23.660Z,15.94
2023-03-26T12:17:53.636Z,15.93
2023-03-26T12:20:24.985Z,15.97
2023-03-26T12:23:01.645Z,16.02
2023-03-26T12:25:30.123Z,16.05
2023-03-26T12:28:06.118Z,16.04
2023-03-26T12:30:34.937Z,16.11
2023-03-26T12:33:04.397Z,16.08
2023-03-26T12:35:34.384Z,16.11
2023-03-26T12:38:21.865Z,16.19
2023-03-26T12:40:49.566Z,16.18
2023-03-26T12:44:48.826Z,16.21
2023-03-26T12:47:56.501Z,16.24
2023-03-26T12:49:20.081Z,16.22
2023-03-26T12:51:57.782Z,16.26
2023-03-26T12:54:28.876Z,16.26
2023-03-26T12:57:16.957Z,16.32
2023-03-26T12:59:46.999Z,16.32
2023-03-26T13:02:16.999Z,16.43
2023-03-26T13:05:05.706Z,16.49
2023-03-26T13:07:58.891Z,16.52
2023-03-26T13:10:37.812Z,16.57
2023-03-26T13:13:05.204Z,16.53
2023-03-26T13:15:36.570Z,16.64
2023-03-26T13:18:24.883Z,16.67
2023-03-26T13:20:55.817Z,16.66
2023-03-26T13:23:29.279Z,16.70
2023-03-26T13:26:28.285Z,16.75
2023-03-26T13:29:30.090Z,16.80
2023-03-26T13:32:21.526Z,16.77
2023-03-26T13:35:13.971Z,16.79
2023-03-26T13:38:08.718Z,16.85
2023-03-26T13:40:38.762Z,16.93
2023-03-26T13:43:40.938Z,16.99
2023-03-26T13:46:20.079Z,17.04
2023-03-26T13:48:58.737Z,17.06
2023-03-26T13:51:41.094Z,17.09
2023-03-26T13:54:07.828Z,17.15
2023-03-26T13:56:43.758Z,17.15
2023-03-26T13:59:21.553Z,17.16
2023-03-26T14:01:55.130Z,17.18
2023-03-26T14:04:33.502Z,17.20
2023-03-26T14:07:15.794Z,17.20
2023-03-26T14:09:54.738Z,17.18
2023-03-26T14:12:27.890Z,17.20
2023-03-26T14:14:54.659Z,17.27
2023-03-26T14:17:47.450Z,17.27
2023-03-26T14:20:44.709Z,17.31
2023-03-26T14:23:31.046Z,17.29
2023-03-26T14:26:07.551Z,17.26
2023-03-26T14:29:02.511Z,17.25
2023-03-26T14:31:51.918Z,17.28
2023-03-26T14:34:29.011Z,17.25
2023-03-26T14:37:50.842Z,17.28
2023-03-26T14:40:38.228Z,17.25
2023-03-26T14:43:05.171Z,17.27
2023-03-26T14:45:35.103Z,17.30
2023-03-26T14:48:26.759Z,17.25
2023-03-26T14:51:03.097Z,17.18
2023-03-26T14:53:33.533Z,17.16
2023-03-26T14:56:19.399Z,17.10
2023-03-26T14:59:12.208Z,17.09
2023-03-26T15:02:17.486Z,17.09
2023-03-26T15:05:21.993Z,17.04
2023-03-26T15:08:00.949Z,17.02
2023-03-26T15:10:36.518Z,16.96
2023-03-26T15:13:28.274Z,16.97
2023-03-26T15:16:24.084Z,16.98
2023-03-26T15:19:03.848Z,16.97
2023-03-26T15:22:02.735Z,16.93
2023-03-26T15:24:57.543Z,16.95
2023-03-26T15:27:48.360Z,16.92
2023-03-26T15:30:33.702Z,16.86
2023-03-26T15:33:27.224Z,16.88
2023-03-26T15:36:16.043Z,16.87
2023-03-26T15:38:59.781Z,16.86
2023-03-26T15:41:28.602Z,16.88
2023-03-26T15:44:23.498Z,16.86
2023-03-26T15:47:18.604Z,16.87
2023-03-26T15:49:59.205Z,16.83
2023-03-26T15:52:30.578Z,16.82
2023-03-26T15:55:06.005Z,16.80
2023-03-26T15:57:39.170Z,16.76
2023-03-26T16:00:23.254Z,16.75
2023-03-26T16:02:53.729Z,16.79
2023-03-26T16:05:24.260Z,16.81
2023-03-26T16:08:14.964Z,16.82
2023-03-26T16:10:56.125Z,16.76
2023-03-26T16:13:26.273Z,16.77
2023-03-26T16:16:06.860Z,16.73
2023-03-26T16:18:41.042Z,16.69
2023-03-26T16:21:31.672Z,16.67
2023-03-26T16:24:02.797Z,16.65
2023-03-26T16:26:44.765Z,16.63
2023-03-26T16:29:14.705Z,16.59
2023-03-26T16:32:19.102Z,16.55
2023-03-26T16:34:55.647Z,16.55
2023-03-26T16:37:32.119Z,16.50
2023-03-26T16:40:20.808Z,16.45
2023-03-26T16:43:06.621Z,16.42
2023-03-26T16:46:07.852Z,16.38
2023-03-26T16:48:47.665Z,16.38
2023-03-26T16:51:20.633Z,16.34
2023-03-26T16:54:06.314Z,16.27
2023-03-26T16:56:53.010Z,16.24
2023-03-26T17:00:06.783Z,16.24
2023-03-26T17:02:42.950Z,16.22
2023-03-26T17:05:38.331Z,16.19
2023-03-26T17:08:35.401Z,16.13
2023-03-26T17:11:05.260Z,16.10
2023-03-26T17:14:06.100Z,16.04
2023-03-26T17:16:46.042Z,15.97
2023-03-26T17:19:33.959Z,15.95
2023-03-26T17:22:29.463Z,15.87
2023-03-26T17:25:01.515Z,15.84
2023-03-26T17:27:54.634Z,15.86
2023-03-26T17:30:31.021Z,15.85
2023-03-26T17:33:03.949Z,15.87
2023-03-26T17:35:45.077Z,15.87
2023-03-26T17:38:17.930Z,15.84
2023-03-26T17:40:55.184Z,15.81
2023-03-26T17:43:53.165Z,15.79
2023-03-26T17:46:42.312Z,15.77
2023-03-26T17:49:12.174Z,15.77
2023-03-26T17:51:41.899Z,15.73
2023-03-26T17:54:23.977Z,15.70
2023-03-26T17:56:52.638Z,15.66
2023-03-26T17:59:23.561Z,15.67
2023-03-26T18:01:53.135Z,15.66
2023-03-26T18:04:48.457Z,15.64
2023-03-26T18:08:14.246Z,15.59
2023-03-26T18:10:49.867Z,15.57
2023-03-26T18:13:17.112Z,15.54
2023-03-26T18:16:03.565Z,15.50
2023-03-26T18:18:37.232Z,15.48
2023-03-26T18:21:07.209Z,15.45
2023-03-26T18:23:47.714Z,15.45
2023-03-26T18:26:42.305Z,15.44
2023-03-26T18:29:23.974Z,15.37
2023-03-26T18:32:10.147Z,15.35
2023-03-26T18:34:39.502Z,15.35
2023-03-26T18:37:25.997Z,15.30
2023-03-26T18:40:00.797Z,15.30
2023-03-26T18:42:29.081Z,15.31
2023-03-26T18:44:59.855Z,15.28
2023-03-26T18:47:29.296Z,15.25
2023-03-26T18:49:56.548Z,15.21
2023-03-26T18:52:23.388Z,15.17
2023-03-26T18:54:52.357Z,15.19
2023-03-26T18:57:24.309Z,15.13
2023-03-26T18:59:52.798Z,15.12
2023-03-26T19:02:20.073Z,15.08
2023-03-26T19:04:49.588Z,15.07
2023-03-26T19:07:22.363Z,15.07
2023-03-26T19:09:50.479Z,15.05
2023-03-26T19:12:20.477Z,14.99
2023-03-26T19:14:51.768Z,15.00
2023-03-26T19:17:18.715Z,14.98
2023-03-26T19:19:45.907Z,14.94
2023-03-26T19:22:12.776Z,14.91
2023-03-26T19:24:40.599Z,14.91
2023-03-26T19:27:07.794Z,14.85
2023-03-26T19:29:35.194Z,14.84
2023-03-26T19:32:06.736Z,14.81
2023-03-26T19:34:35.560Z,14.83
2023-03-26T19:37:04.287Z,14.79
2023-03-26T19:39:45.188Z,14.76
2023-03-26T19:42:17.805Z,14.72
2023-03-26T19:44:44.962Z,14.74
2023-03-26T19:47:31.923Z,14.71
2023-03-26T19:50:26.947Z,14.68
2023-03-26T19:53:16.631Z,14.66
2023-03-26T19:55:58.007Z,14.68
2023-03-26T19:58:26.201Z,14.63
2023-03-26T20:00:53.890Z,14.62
2023-03-26T20:03:29.253Z,14.61
2023-03-26T20:05:56.690Z,14.63
2023-03-26T20:08:32.879Z,14.61
2023-03-26T20:11:00.155Z,14.55
2023-03-26T20:13:26.949Z,14.55
2023-03-26T20:16:07.753Z,14.56
2023-03-26T20:18:35.071Z,14.56
2023-03-26T20:21:05.276Z,14.53
2023-03-26T20:23:32.145Z,14.49
2023-03-26T20:25:59.229Z,14.48
2023-03-26T20:28:25.988Z,14.50
2023-03-26T20:30:54.575Z,14.47
2023-03-26T20:33:25.518Z,14.46
2023-03-26T20:35:54.176Z,14.43
2023-03-26T20:38:26.535Z,14.44
2023-03-26T20:41:00.046Z,14.40
2023-03-26T20:43:30.176Z,14.25
2023-03-26T20:45:58.563Z,14.26
2023-03-26T20:48:28.122Z,14.34
2023-03-26T20:50:57.137Z,14.23
2023-03-26T20:53:24.014Z,14.26
2023-03-26T20:55:51.814Z,14.20
2023-03-26T20:58:31.180Z,14.24
2023-03-26T21:01:00.897Z,14.16
2023-03-26T21:03:27.902Z,14.22
2023-03-26T21:05:55.042Z,14.26
2023-03-26T21:08:25.662Z,14.22
2023-03-26T21:10:56.078Z,14.26
2023-03-26T21:13:40.181Z,14.17
2023-03-26T21:16:08.271Z,14.21
2023-03-26T21:18:35.523Z,14.21
2023-03-26T21:21:20.099Z,14.16
2023-03-26T21:24:17.981Z,14.15
2023-03-26T21:26:50.739Z,14.10
2023-03-26T21:29:17.875Z,14.12
2023-03-26T21:31:46.696Z,14.13
2023-03-26T21:34:14.009Z,14.10
2023-03-26T21:36:42.052Z,14.02
2023-03-26T21:39:10.974Z,14.01
2023-03-26T21:41:47.746Z,14.05
2023-03-26T21:44:16.413Z,14.00
2023-03-26T21:46:44.376Z,13.99
2023-03-26T21:49:12.149Z,13.98
2023-03-26T21:51:39.458Z,14.02
2023-03-26T21:54:28.023Z,13.97
2023-03-26T21:56:59.097Z,13.94
2023-03-26T21:59:41.316Z,13.94
2023-03-26T22:02:29.890Z,13.93
2023-03-26T22:04:59.450Z,13.88
2023-03-26T22:07:50.898Z,13.89
2023-03-26T22:10:17.881Z,13.88
2023-03-26T22:12:44.955Z,13.80
2023-03-26T22:15:13.918Z,13.80
2023-03-26T22:17:41.899Z,13.75
2023-03-26T22:20:13.510Z,13.78
2023-03-26T22:22:41.549Z,13.75
2023-03-26T22:25:10.404Z,13.75
2023-03-26T22:27:43.901Z,13.70
2023-03-26T22:30:12.430Z,13.70
2023-03-26T22:32:39.963Z,13.70
2023-03-26T22:35:07.222Z,13.70
2023-03-26T22:37:35.586Z,13.63
2023-03-26T22:40:04.450Z,13.67
2023-03-26T22:42:31.598Z,13.64
2023-03-26T22:44:58.339Z,13.66
2023-03-26T22:47:25.425Z,13.66
2023-03-26T22:49:52.475Z,13.60
2023-03-26T22:52:19.611Z,13.66
2023-03-26T22:54:46.505Z,13.66
2023-03-26T22:57:13.763Z,13.59
2023-03-26T22:59:40.806Z,13.60
2023-03-26T23:02:09.879Z,13.53
2023-03-26T23:04:37.630Z,13.57
2023-03-26T23:07:05.316Z,13.54
2023-03-26T23:09:32.075Z,13.53
2023-03-26T23:11:59.156Z,13.51
2023-03-26T23:14:26.055Z,13.54
2023-03-26T23:16:53.090Z,13.51
2023-03-26T23:19:19.963Z,13.51
2023-03-26T23:21:47.041Z,13.48
2023-03-26T23:24:15.643Z,13.52
2023-03-26T23:26:50.548Z,13.49
2023-03-26T23:29:18.375Z,13.49
2023-03-26T23:31:45.454Z,13.46
2023-03-26T23:34:13.600Z,13.45
2023-03-26T23:36:41.886Z,13.47
2023-03-26T23:39:09.327Z,13.49
2023-03-26T23:41:36.873Z,13.42
2023-03-26T23:44:03.865Z,13.42
2023-03-26T23:46:33.920Z,13.42
2023-03-26T23:49:02.469Z,13.43
2023-03-26T23:51:32.772Z,13.39
2023-03-26T23:54:00.147Z,13.38
2023-03-26T23:56:30.114Z,13.37
2023-03-26T23:58:57.209Z,13.45
